AFR90 LFPG-KMIA
Flight info
| Callsign | AFR90 |
|---|---|
| Flight time | N/A |
| Altitude | 30000 |
| Route | ELCOB UT300 SENLO UN502 JSY DCT LIZAD DCT GAPLI/M084F320 DCT DINIM NATG NICSO/M084F340 DCT LOMPI M202 ONGOT DCT PADRK M203 SNAGY/N0493F340 BNFSH3 |
| Aircraft | B77W/H-SDE1E2E3FGHIJ2J3J4J5M1RWXY/LB1D1 |
Departure
| Time | 2026-04-30 10:06 |
|---|---|
| Airport | Charles de Gaulle International Airport (LFPG) |
Arrival
| Time | N/A |
|---|---|
| Airport | Miami International Airport (KMIA) |
| Time | Latitude | Longitude | Altitude | Speed | Heading |
|---|---|---|---|---|---|
| 2026-04-30 09:43 | 49.00138 | 2.57821 | 364 ft | 0 kts | 355° |
| 2026-04-30 09:45 | 49.00151 | 2.57820 | 364 ft | 0 kts | 355° |
| 2026-04-30 09:56 | 49.00144 | 2.57820 | 366 ft | 4 kts | 356° |
| 2026-04-30 09:56 | 49.00117 | 2.57820 | 362 ft | 4 kts | 7° |
| 2026-04-30 09:56 | 49.00091 | 2.57812 | 363 ft | 4 kts | 24° |
| 2026-04-30 09:57 | 49.00070 | 2.57790 | 368 ft | 4 kts | 57° |
| 2026-04-30 09:57 | 49.00063 | 2.57769 | 368 ft | 0 kts | 85° |
| 2026-04-30 09:59 | 49.00068 | 2.57851 | 364 ft | 10 kts | 85° |
| 2026-04-30 10:00 | 49.00078 | 2.58049 | 364 ft | 11 kts | 85° |
| 2026-04-30 10:00 | 49.00084 | 2.58169 | 364 ft | 11 kts | 85° |
| 2026-04-30 10:01 | 49.00013 | 2.58306 | 364 ft | 11 kts | 195° |
| 2026-04-30 10:01 | 48.99938 | 2.58273 | 365 ft | 11 kts | 216° |
| 2026-04-30 10:01 | 48.99913 | 2.58158 | 364 ft | 13 kts | 265° |
| 2026-04-30 10:02 | 48.99897 | 2.57852 | 359 ft | 18 kts | 265° |
| 2026-04-30 10:02 | 48.99882 | 2.57576 | 359 ft | 21 kts | 265° |
| 2026-04-30 10:02 | 48.99873 | 2.57421 | 367 ft | 22 kts | 265° |
| 2026-04-30 10:02 | 48.99860 | 2.57183 | 365 ft | 23 kts | 265° |
| 2026-04-30 10:03 | 48.99848 | 2.56941 | 364 ft | 23 kts | 266° |
| 2026-04-30 10:03 | 48.99835 | 2.56699 | 359 ft | 23 kts | 264° |
| 2026-04-30 10:03 | 48.99820 | 2.56457 | 359 ft | 23 kts | 264° |
| 2026-04-30 10:03 | 48.99810 | 2.56217 | 364 ft | 23 kts | 264° |
| 2026-04-30 10:04 | 48.99801 | 2.56093 | 366 ft | 8 kts | 258° |
| 2026-04-30 10:04 | 48.99765 | 2.56037 | 365 ft | 8 kts | 201° |
| 2026-04-30 10:04 | 48.99710 | 2.56033 | 361 ft | 9 kts | 179° |
| 2026-04-30 10:04 | 48.99635 | 2.56037 | 366 ft | 6 kts | 167° |
| 2026-04-30 10:05 | 48.99615 | 2.56105 | 366 ft | 14 kts | 89° |
| 2026-04-30 10:05 | 48.99638 | 2.56528 | 363 ft | 75 kts | 85° |
| 2026-04-30 10:05 | 48.99698 | 2.57683 | 364 ft | 141 kts | 85° |
| 2026-04-30 10:05 | 48.99793 | 2.59457 | 383 ft | 188 kts | 86° |
| 2026-04-30 10:06 | 48.99897 | 2.61442 | 984 ft | 185 kts | 87° |
| 2026-04-30 10:06 | 48.99991 | 2.63399 | 1634 ft | 184 kts | 88° |
| 2026-04-30 10:06 | 49.00093 | 2.65362 | 2081 ft | 187 kts | 89° |
| 2026-04-30 10:06 | 49.00203 | 2.67346 | 2592 ft | 189 kts | 89° |
| 2026-04-30 10:07 | 49.00315 | 2.69357 | 3032 ft | 193 kts | 89° |
| 2026-04-30 10:07 | 49.00423 | 2.71416 | 3454 ft | 196 kts | 89° |
| 2026-04-30 10:07 | 49.00536 | 2.73577 | 3644 ft | 214 kts | 88° |
| 2026-04-30 10:07 | 49.00655 | 2.75932 | 3881 ft | 232 kts | 88° |
| 2026-04-30 10:08 | 49.00725 | 2.78428 | 4175 ft | 242 kts | 97° |
| 2026-04-30 10:08 | 49.00493 | 2.80996 | 4638 ft | 249 kts | 102° |
| 2026-04-30 10:08 | 49.00175 | 2.83632 | 5268 ft | 252 kts | 101° |
| 2026-04-30 10:08 | 48.99873 | 2.86254 | 5841 ft | 255 kts | 100° |
| 2026-04-30 10:09 | 48.99576 | 2.88954 | 6416 ft | 261 kts | 100° |
| 2026-04-30 10:09 | 48.99285 | 2.91674 | 7086 ft | 260 kts | 100° |
| 2026-04-30 10:09 | 48.98996 | 2.94392 | 7737 ft | 259 kts | 100° |
| 2026-04-30 10:09 | 48.98639 | 2.97106 | 8125 ft | 265 kts | 112° |
| 2026-04-30 10:10 | 48.97598 | 2.99428 | 8493 ft | 274 kts | 138° |
| 2026-04-30 10:10 | 48.95940 | 3.00896 | 8986 ft | 280 kts | 161° |
| 2026-04-30 10:10 | 48.93998 | 3.01309 | 9580 ft | 286 kts | 182° |
| 2026-04-30 10:10 | 48.92064 | 3.00496 | 10153 ft | 294 kts | 206° |
| 2026-04-30 10:11 | 48.90504 | 2.98429 | 10556 ft | 309 kts | 231° |
| 2026-04-30 10:11 | 48.89485 | 2.95415 | 10667 ft | 333 kts | 248° |
| 2026-04-30 10:11 | 48.88813 | 2.91947 | 10829 ft | 353 kts | 253° |
| 2026-04-30 10:11 | 48.88231 | 2.88220 | 10985 ft | 372 kts | 255° |
| 2026-04-30 10:12 | 48.87642 | 2.84304 | 11266 ft | 386 kts | 255° |
| 2026-04-30 10:12 | 48.87024 | 2.80288 | 11769 ft | 395 kts | 254° |
| 2026-04-30 10:12 | 48.86374 | 2.76205 | 12469 ft | 397 kts | 254° |
| 2026-04-30 10:12 | 48.85701 | 2.72119 | 13196 ft | 400 kts | 254° |
| 2026-04-30 10:13 | 48.85007 | 2.67988 | 13802 ft | 407 kts | 253° |
| 2026-04-30 10:13 | 48.84293 | 2.63794 | 14345 ft | 414 kts | 253° |
| 2026-04-30 10:13 | 48.83571 | 2.59580 | 15151 ft | 411 kts | 253° |
| 2026-04-30 10:13 | 48.82859 | 2.55426 | 15847 ft | 413 kts | 253° |
| 2026-04-30 10:14 | 48.82129 | 2.51177 | 16372 ft | 420 kts | 253° |
| 2026-04-30 10:14 | 48.81386 | 2.46860 | 16919 ft | 425 kts | 253° |
| 2026-04-30 10:14 | 48.80398 | 2.37996 | 17907 ft | 437 kts | 276° |
| 2026-04-30 10:15 | 48.81185 | 2.33521 | 18387 ft | 438 kts | 289° |
| 2026-04-30 10:15 | 48.82208 | 2.29112 | 18746 ft | 446 kts | 287° |
| 2026-04-30 10:15 | 48.83152 | 2.24610 | 19250 ft | 449 kts | 286° |
| 2026-04-30 10:15 | 48.84063 | 2.20058 | 19825 ft | 451 kts | 286° |